Crete, IL (60417)

12:13 PM CST on February 14, 2016 (GMT -0600)
Northern Crete IL | | Change Station
CLOSE
Current Station
Personal Weather Station
Location: Crete, IL
Elevation: 730 ft
Nearby Weather Stations

Elev 730 ft 41.47 °N, 87.62 °W | Updated 13 seconds ago

Light Snow
Light Snow
15.9 °F
Feels Like 11 °F
N
3.1
Wind Variable Wind from SSE
Gusts 3.1 mph

Today
High -- | Low -- °F
--% Chance of Precip.
Yesterday
High -- | Low -- °F
Precip. -- in
Pressure 30.25 in
Visibility 10.0 miles
Clouds Scattered Clouds 3700 ft
Overcast 4600 ft
Windchill 11 °F
Dew Point 9 °F
Humidity 75%
Rainfall Not available.
Snow Depth Not available.
6:47 AM 5:22 PM
Waxing Crescent, 44% visible
METAR KIGQ 141755Z AUTO 14011G15KT 10SM -SN SCT037 OVC046 M08/M15 A3025 RMK AO2 T10781151 11077 21105
Pressure 30.25 in
Visibility 10.0 miles
Clouds Scattered Clouds 3700 ft
Overcast 4600 ft
Windchill 11 °F
Dew Point 9 °F
Humidity 75%
Rainfall Not available.
Snow Depth Not available.
6:47 AM 5:22 PM
Waxing Crescent, 44% visible
METAR KIGQ 141755Z AUTO 14011G15KT 10SM -SN SCT037 OVC046 M08/M15 A3025 RMK AO2 T10781151 11077 21105

10-Day Weather Forecast

Almanac

Astronomy

Feb. 14, 2016 Rise Set
Actual Time
Civil Twilight
Nautical Twilight
Astronomical Twilight
Moon
Length of Visible Light
Length of Day
Tomorrow will be .
, % of the Moon is Illuminated

Today's Extremes

State Highs State Lows

Community

WunderPhotos

Upload Photos

1,892,867 photos uploaded!

WunderBlog® & News

Nearby

Air Quality

  Air Quality AQ Index Pollutant
Not available.

Snow Depth

Station Depth Elevation

Earthquake Activity

City Distance Mag. Time & Date
Minimum magnitude displayed is 2.5.

Coastal Water Temperatures

Place Temperature

Stations

Nearby Weather Stations

Station Location Temp. Windchill Dew Point Humidity Wind Precip. Elev Updated Type
                   

Watches & Warnings

There are currently no watches in effect.